Pekin, IL (61554)

3:29 AM CST on February 14, 2016 (GMT -0600)
Green Acres | | Change Station
CLOSE
Current Station
Personal Weather Station
Location: Green Valley, IL
Elevation: 516 ft
Nearby Weather Stations
Active Advisory: Winter Weather Advisory

Elev 516 ft 40.48 °N, 89.66 °W | Updated 7 minutes ago

Snow
Snow
16.4 °F
Feels Like 16 °F
N
3.0
Wind Variable Wind from SE
Gusts 6.0 mph

Today
High -- | Low -- °F
--% Chance of Precip.
Yesterday
High -- | Low -- °F
Precip. -- in
Pressure 30.37 in
Visibility 1.5 miles
Clouds Overcast 1800 ft
Windchill 16 °F
Dew Point 14 °F
Humidity 89%
Rainfall 0.00 in
Snow Depth Not available.
6:54 AM 5:31 PM
Waxing Crescent, 40% visible
SPECI KPIA 140916Z 15009KT 1 1/2SM -SN OVC018 M09/M12 A3037 RMK AO2 P0001 T10891117
Pressure 30.37 in
Visibility 1.5 miles
Clouds Overcast 1800 ft
Windchill 16 °F
Dew Point 14 °F
Humidity 89%
Rainfall 0.00 in
Snow Depth Not available.
6:54 AM 5:31 PM
Waxing Crescent, 40% visible
SPECI KPIA 140916Z 15009KT 1 1/2SM -SN OVC018 M09/M12 A3037 RMK AO2 P0001 T10891117

10-Day Weather Forecast

Almanac

Astronomy

Feb. 14, 2016 Rise Set
Actual Time
Civil Twilight
Nautical Twilight
Astronomical Twilight
Moon
Length of Visible Light
Length of Day
Tomorrow will be .
, % of the Moon is Illuminated

Today's Extremes

State Highs State Lows

Community

WunderPhotos

Upload Photos

1,892,761 photos uploaded!

WunderBlog® & News

Nearby

Air Quality

  Air Quality AQ Index Pollutant
Not available.

Snow Depth

Station Depth Elevation

Earthquake Activity

City Distance Mag. Time & Date
Minimum magnitude displayed is 2.5.

Coastal Water Temperatures

Place Temperature

Stations

Nearby Weather Stations

Station Location Temp. Windchill Dew Point Humidity Wind Precip. Elev Updated Type
                   

Watches & Warnings

Winter Weather Advisory
Issued: 11:44 PM CST Feb. 13, 2016 – National Weather Service

... Winter Weather Advisory remains in effect from 3 am to 6 PM
CST Sunday...

* timing... snow developing across west central Illinois early
overnight... and continue into east central and southeast
Illinois.

* Snow accumulations... 2 to 4 inches over most of the area with
4 to 5 inches along and northwest of the Illinois River by
sunset Sunday.

* Wind... southeast at 10 to 15 mph... with gusts of 20 to 25 mph
at times Sunday.

* Main impact... hazardous travel conditions due to snow and low
visibilities down to a mile or less at times... as well as
blowing and drifting snow.

Precautionary/preparedness actions...

A Winter Weather Advisory for snow means that periods of snow
will cause primarily travel difficulties. Be prepared for snow
covered roads and limited visibilities... and use caution while
driving.